Latest Coastal Weather Observations for Flinders Island Airport

IDT60701

Issued at 10:15 pm EST Monday 21 April 2014 (issued every 10 minutes, with the page automatically refreshed every 10 minutes)

About coastal observations | Map of coastal stations | Coastal observations for TAS | Marine services | Other Formats
Station Details ID: 099005 Name: FLINDERS ISLAND AIRPORT Lat: -40.09 Lon: 148.00 Height: 9.0 m
Data from the previous 72 hours. | See also: Recent months at Flinders Island Airport
Date/Time
EST
Temp

°C
Wind Pressure Rain
since 9am
mm
Weather Cloud Vis
km
Sea
Height
m
Swell
Dir
 
Speed
knots
Gust
knots
hPa Trend Height
m
Period
s
Dir
21/10:00pm 17.3 NNE 19 27 1013.4 - 0.8 - Cloudy 10 - - - -
21/09:30pm 17.3 NNE 21 29 1013.4 - 0.8 - Partly cloudy 10 - - - -
21/09:00pm 17.1 NNE 20 27 1013.4 - 0.8 - Mostly cloudy 10 - - - -
21/08:33pm 17.1 NNE 21 32 1013.2 - 0.8 - Cloudy 10 - - - -
21/08:30pm 17.2 NNE 20 27 1013.3 - 0.8 - Cloudy 10 - - - -
21/08:03pm 17.1 NNE 17 27 1013.1 - 0.8 - Partly cloudy 10 - - - -
21/08:00pm 17.1 NNE 19 27 1013.0 - 0.8 - Partly cloudy 10 - - - -
21/07:44pm 16.8 NNE 19 30 1013.1 - 0.8 - Partly cloudy 10 - - - -
21/07:30pm 16.9 NNE 17 24 1013.5 - 0.8 - Partly cloudy 10 - - - -
21/07:00pm 16.3 NNE 13 18 1014.0 - 0.8 - Partly cloudy 10 - - - -
21/06:30pm 15.9 NNE 11 16 1014.2 - 0.8 - Partly cloudy 10 - - - -
21/06:00pm 15.5 NNE 8 13 1014.4 - 0.8 - Mostly cloudy 10 - - - -
21/05:30pm 15.5 N 9 14 1014.6 - 0.8 - Partly cloudy 10 - - - -
21/05:00pm 15.5 N 7 10 1014.9 - 0.8 - Partly cloudy 10 - - - -
21/04:30pm 15.2 N 7 11 1015.7 - 0.8 - Partly cloudy 10 - - - -
21/04:00pm 15.6 N 7 10 1016.0 - 0.6 - Partly cloudy 10 - - - -
21/03:30pm 15.8 N 7 10 1016.1 - 0.4 - Partly cloudy 10 - - - -
21/03:00pm 15.9 N 6 8 1016.0 - 0.4 - Cloudy 10 - - - -
21/02:30pm 17.3 N 7 9 1016.2 - 0.0 - Partly cloudy 10 - - - -
21/02:00pm 17.3 N 8 10 1016.2 - 0.0 - Partly cloudy 10 - - - -
21/01:30pm 17.5 N 8 13 1016.3 - 0.0 - Partly cloudy 10 - - - -
21/01:00pm 17.7 NNW 9 13 1016.5 - 0.0 - Partly cloudy 10 - - - -
21/12:30pm 17.8 NNW 9 11 1016.9 - 0.0 - Partly cloudy 10 - - - -
21/12:00pm 17.9 NW 9 13 1017.3 - 0.0 - Mostly clear 10 - - - -
21/11:30am 17.6 NNW 9 14 1017.7 - 0.0 - Partly cloudy 10 - - - -
21/11:10am 16.7 NW 9 12 1018.0 - 0.0 - Partly cloudy 10 - - - -
21/11:00am 16.6 NW 9 12 1018.1 - 0.0 - Partly cloudy 10 - - - -
21/10:30am 16.4 NW 8 11 1018.3 - 0.0 - Partly cloudy 10 - - - -
21/10:26am 16.5 NW 8 11 1018.2 - 0.0 - Partly cloudy 10 - - - -
21/10:14am 16.3 NW 6 9 1018.2 - 0.0 - Partly cloudy 10 - - - -
21/10:00am 15.8 N 5 8 1018.4 - 0.0 - Partly cloudy 10 - - - -
21/09:41am 14.8 NE 7 8 1018.5 - 0.0 - Partly cloudy 10 - - - -
21/09:30am 14.6 NE 7 9 1018.6 - 0.0 - Partly cloudy 10 - - - -
21/09:00am 13.9 NNE 6 8 1019.0 - 2.4 - Mostly cloudy 10 - - - -
21/08:30am 14.1 ENE 6 7 1018.9 - 2.4 - Cloudy 10 - - - -
21/08:22am 13.8 ENE 5 6 1019.0 - 2.4 - Cloudy 10 - - - -
21/08:00am 13.2 NE 6 7 1018.9 - 2.4 - Partly cloudy 10 - - - -
21/07:30am 12.7 NE 4 5 1018.5 - 2.4 - Cloudy 10 - - - -
21/07:00am 12.4 NE 2 4 1018.2 - 2.4 - Partly cloudy 10 - - - -
21/06:30am 12.2 ENE 5 6 1018.0 - 2.4 - Partly cloudy 10 - - - -
21/06:00am 13.3 ENE 4 5 1017.8 - 2.4 - Cloudy 10 - - - -
21/05:30am 14.1 WSW 6 7 1017.6 - 2.4 - Cloudy 10 - - - -
21/05:00am 14.6 SW 7 8 1017.4 - 2.4 - Partly cloudy 10 - - - -
21/04:30am 14.9 SW 8 10 1017.2 - 2.4 - Partly cloudy 10 - - - -
21/04:00am 14.7 W 8 10 1016.8 - 2.4 - Cloudy 10 - - - -
21/03:30am 14.7 WSW 9 11 1016.7 - 2.4 - Partly cloudy 10 - - - -
21/03:00am 14.8 WSW 10 13 1016.5 - 2.4 - Cloudy 10 - - - -
21/02:30am 15.1 WSW 11 15 1016.6 - 2.4 - Cloudy 10 - - - -
21/02:00am 15.2 WSW 12 15 1016.5 - 2.4 - Cloudy 10 - - - -
21/01:30am 15.3 WSW 11 16 1016.3 - 2.4 - Cloudy 10 - - - -
21/01:00am 15.5 WSW 12 14 1016.3 - 2.4 - Cloudy 10 - - - -
21/12:30am 15.5 SW 15 18 1016.1 - 2.4 - Cloudy 10 - - - -
21/12:00am 15.4 WSW 14 17 1015.9 - 2.4 - Mostly cloudy 10 - - - -
 
Date/Time
EST
Temp

°C
Wind Pressure Rain
since 9am
mm
Weather Cloud Vis
km
Sea
Height
m
Swell
Dir
 
Speed
knots
Gust
knots
hPa Trend Height
m
Period
s
Dir
20/11:30pm 15.2 WSW 15 18 1015.9 - 2.4 - Partly cloudy 10 - - - -
20/11:00pm 14.7 W 12 16 1015.9 - 2.4 - Partly cloudy 10 - - - -
20/10:30pm 14.7 W 15 20 1015.9 - 2.4 - Partly cloudy 10 - - - -
20/10:00pm 14.5 W 13 17 1015.8 - 2.4 - Partly cloudy 10 - - - -
20/09:48pm 14.4 W 12 16 1015.8 - 2.4 - Partly cloudy 10 - - - -
20/09:30pm 14.7 W 14 18 1015.6 - 2.4 - Partly cloudy 10 - - - -
20/09:23pm 14.6 W 14 17 1015.6 - 2.4 - Partly cloudy 10 - - - -
20/09:00pm 14.5 W 15 20 1015.5 - 2.4 - Cloudy 10 - - - -
20/08:30pm 14.4 WNW 16 20 1015.3 - 2.2 - Partly cloudy 8 - - - -
20/08:00pm 15.1 WNW 16 25 1015.0 - 1.6 - Partly cloudy 10 - - - -
20/07:30pm 14.7 WNW 17 22 1014.8 - 1.6 - - 10 - - - -
20/07:00pm 14.6 W 21 30 1014.6 - 1.6 - Partly cloudy 9 - - - -
20/06:51pm 15.5 W 18 29 1014.4 - 1.6 - Partly cloudy 10 - - - -
20/06:30pm 15.2 W 19 25 1014.2 - 1.6 - Partly cloudy 10 - - - -
20/06:00pm 14.8 W 21 28 1013.9 - 1.6 - Cloudy 10 - - - -
20/05:30pm 14.2 W 16 20 1013.6 - 1.6 - Partly cloudy 10 - - - -
20/05:13pm 14.3 WNW 16 26 1013.5 - 1.4 - Partly cloudy 10 - - - -
20/05:00pm 14.1 WNW 19 30 1013.4 - 1.4 - Partly cloudy 4 - - - -
20/04:59pm 14.1 W 20 30 1013.4 - 1.4 - Partly cloudy 4 - - - -
20/04:55pm 14.1 W 23 30 1013.5 - 1.2 - Partly cloudy 5 - - - -
20/04:30pm 15.6 WNW 17 26 1013.1 - 0.8 - Partly cloudy 10 - - - -
20/04:00pm 15.6 W 19 26 1013.0 - 0.8 - Partly cloudy 10 - - - -
20/03:34pm 14.6 W 18 28 1013.0 - 0.8 - Partly cloudy 9 - - - -
20/03:30pm 14.7 W 20 28 1012.9 - 0.8 - Partly cloudy 9 - - - -
20/03:00pm 15.8 W 19 26 1012.9 - 0.8 - Cloudy 10 - - - -
20/02:30pm 15.9 W 17 23 1012.8 - 0.8 - Partly cloudy 10 - - - -
20/02:00pm 15.7 W 18 23 1013.0 - 0.8 - Partly cloudy 10 - - - -
20/01:30pm 16.1 W 19 26 1012.9 - 0.6 - Partly cloudy 10 - - - -
20/01:00pm 15.3 W 20 27 1013.1 - 0.6 - Partly cloudy 10 - - - -
20/12:30pm 16.1 W 18 24 1013.4 - 0.6 - Partly cloudy 10 - - - -
20/12:08pm 14.3 W 17 27 1013.8 - 0.6 - Partly cloudy 10 - - - -
20/12:00pm 14.4 W 22 28 1014.0 - 0.6 - Cloudy 10 - - - -
20/11:56am 14.4 W 21 28 1014.0 - 0.6 - Partly cloudy 10 - - - -
20/11:51am 14.6 WNW 17 28 1014.0 - 0.6 - Partly cloudy 10 - - - -
20/11:40am 14.2 W 15 23 1014.1 - 0.6 - Partly cloudy 5 - - - -
20/11:30am 15.1 WNW 15 19 1014.2 - 0.6 - Partly cloudy 10 - - - -
20/11:00am 14.2 WNW 11 14 1014.6 - 0.6 - Partly cloudy 10 - - - -
20/10:55am 13.9 WNW 10 13 1014.7 - 0.6 - Partly cloudy 10 - - - -
20/10:40am 13.0 W 15 27 1014.9 - 0.4 - Partly cloudy 5 - - - -
20/10:30am 13.4 W 26 32 1014.9 - 0.4 - Partly cloudy 10 - - - -
20/10:21am 15.2 W 20 32 1014.7 - 0.4 - Partly cloudy 10 - - - -
20/10:02am 14.4 W 16 21 1014.8 - 0.4 - Partly cloudy 10 - - - -
20/10:00am 14.4 W 14 19 1014.8 - 0.4 - Partly cloudy 10 - - - -
20/09:49am 13.7 W 18 28 1015.0 - 0.4 - Partly cloudy 4 - - - -
20/09:45am 13.5 W 20 28 1015.0 - 0.4 - Partly cloudy 5 - - - -
20/09:30am 14.9 WNW 16 20 1014.8 - 0.0 - Partly cloudy 10 - - - -
20/09:00am 15.1 WNW 14 19 1014.8 - 1.2 - - 10 - - - -
20/08:30am 13.6 WNW 13 17 1014.8 - 1.2 - Partly cloudy 10 - - - -
20/08:00am 12.8 WNW 8 12 1014.8 - 1.2 - Partly cloudy 10 - - - -
20/07:58am 12.8 W 9 13 1014.9 - 1.2 - Partly cloudy 10 - - - -
20/07:46am 12.8 W 10 17 1014.8 - 1.2 - Partly cloudy 5 - - - -
20/07:30am 13.1 W 7 9 1014.6 - 0.8 - Partly cloudy 10 - - - -
20/07:00am 12.5 W 10 14 1014.6 - 0.8 - Partly cloudy 10 - - - -
20/06:30am 12.6 W 11 15 1014.5 - 0.8 - Partly cloudy 10 - - - -
20/06:00am 12.3 W 11 15 1014.6 - 0.8 - Cloudy 10 - - - -
20/05:30am 12.2 W 13 18 1014.5 - 0.6 - Partly cloudy 10 - - - -
20/05:12am 12.0 W 12 18 1014.6 - 0.6 - Partly cloudy 10 - - - -
20/05:00am 12.0 WSW 17 21 1014.6 - 0.6 - Partly cloudy 7 - - - -
20/04:52am 11.6 W 16 23 1014.5 - 0.6 - Partly cloudy 6 - - - -
20/04:46am 12.1 W 13 19 1014.5 - 0.6 - Partly cloudy 7 - - - -
20/04:30am 12.8 W 17 22 1014.4 - 0.4 - Partly cloudy 4 - - - -
20/04:29am 12.9 W 17 22 1014.4 - 0.2 - Partly cloudy 5 - - - -
20/04:00am 13.8 W 12 16 1014.1 - 0.0 - Cloudy 10 - - - -
20/03:30am 13.8 W 13 17 1014.2 - 0.0 - Cloudy 10 - - - -
20/03:00am 14.0 WSW 15 19 1014.2 - 0.0 - Cloudy 10 - - - -
20/02:30am 14.1 W 14 17 1014.3 - 0.0 - Cloudy 10 - - - -
20/02:00am 14.1 W 14 17 1014.4 - 0.0 - Partly cloudy 10 - - - -
20/01:30am 14.1 W 13 16 1014.7 - 0.0 - Partly cloudy 10 - - - -
20/01:00am 14.2 W 15 17 1014.9 - 0.0 - Partly cloudy 10 - - - -
20/12:30am 14.0 WSW 15 18 1015.1 - 0.0 - Partly cloudy 10 - - - -
20/12:00am 14.1 W 12 15 1015.4 - 0.0 - Cloudy 10 - - - -
 
Date/Time
EST
Temp

°C
Wind Pressure Rain
since 9am
mm
Weather Cloud Vis
km
Sea
Height
m
Swell
Dir
 
Speed
knots
Gust
knots
hPa Trend Height
m
Period
s
Dir
19/11:30pm 13.8 W 9 11 1015.5 - 0.0 - Cloudy 10 - - - -
19/11:00pm 13.7 WSW 14 19 1015.7 - 0.0 - Cloudy 10 - - - -
19/10:30pm 13.6 WSW 14 18 1016.0 - 0.0 - Cloudy 10 - - - -
19/10:00pm 13.7 W 17 21 1016.3 - 0.0 - Cloudy 10 - - - -
19/09:30pm 13.7 WSW 15 19 1016.2 - 0.0 - Cloudy 10 - - - -
19/09:00pm 13.9 W 14 18 1016.1 - 0.0 - Cloudy 10 - - - -
19/08:30pm 13.9 W 15 18 1016.1 - 0.0 - Partly cloudy 10 - - - -
19/08:00pm 14.0 W 13 16 1016.1 - 0.0 - Cloudy 10 - - - -
19/07:30pm 13.9 W 13 16 1016.2 - 0.0 - Cloudy 10 - - - -
19/07:00pm 13.9 WSW 14 17 1016.1 - 0.0 - Cloudy 10 - - - -
19/06:30pm 13.7 W 15 19 1016.1 - 0.0 - Cloudy 10 - - - -
19/06:00pm 13.8 WSW 14 18 1015.8 - 0.0 - Mostly cloudy 10 - - - -
19/05:30pm 13.6 WSW 12 15 1015.8 - 0.0 - Partly cloudy 10 - - - -
19/05:00pm 13.7 WSW 13 17 1015.7 - 0.0 - Partly cloudy 10 - - - -
19/04:30pm 13.1 WSW 14 18 1015.7 - 0.0 - Partly cloudy 10 - - - -
19/04:00pm 13.7 WSW 14 17 1015.9 - 0.0 - Partly cloudy 10 - - - -
19/03:30pm 13.9 W 14 17 1015.8 - 0.0 - Partly cloudy 10 - - - -
19/03:00pm 14.9 W 12 15 1015.7 - 0.0 - Partly cloudy 10 - - - -
19/02:30pm 15.6 WSW 13 16 1015.6 - 0.0 - Partly cloudy 10 - - - -
19/02:00pm 14.7 WSW 11 14 1015.5 - 0.0 - Partly cloudy 10 - - - -
19/01:30pm 15.6 SW 10 14 1015.7 - 0.0 - Partly cloudy 10 - - - -
19/01:00pm 15.5 SW 11 14 1015.8 - 0.0 - Partly cloudy 10 - - - -
19/12:30pm 14.4 SW 11 15 1016.1 - 0.0 - Partly cloudy 10 - - - -
19/12:00pm 15.5 SSW 11 17 1016.3 - 0.0 - Partly cloudy 10 - - - -
19/11:30am 15.1 SSW 11 15 1016.5 - 0.0 - - 10 - - - -
19/11:00am 15.2 SSW 13 17 1016.5 - 0.0 - Partly cloudy 10 - - - -
19/10:30am 14.9 SSW 14 18 1016.6 - 0.0 - Partly cloudy 10 - - - -
19/10:00am 14.3 SSW 13 18 1016.5 - 0.0 - Partly cloudy 10 - - - -
19/09:30am 14.1 SSW 14 19 1016.5 - 0.0 - Partly cloudy 10 - - - -
19/09:00am 13.3 SSW 14 18 1016.4 - 7.2 - Cloudy 10 - - - -
19/08:30am 13.3 SSW 15 20 1016.2 - 7.2 - Partly cloudy 10 - - - -
19/08:00am 13.3 SW 17 20 1015.9 - 7.2 - Partly cloudy 10 - - - -
19/07:30am 13.3 SW 15 20 1015.7 - 7.2 - Partly cloudy 10 - - - -
19/07:00am 13.1 SW 16 21 1015.4 - 7.2 - Cloudy 10 - - - -
19/06:30am 13.2 SW 16 19 1015.2 - 7.2 - Partly cloudy 10 - - - -
19/06:00am 13.5 SW 16 19 1014.9 - 7.2 - Cloudy 10 - - - -
19/05:30am 13.3 SW 18 22 1014.7 - 7.2 - Partly cloudy 10 - - - -
19/05:00am 13.4 SW 18 22 1014.6 - 7.2 - Partly cloudy 10 - - - -
19/04:30am 13.4 SSW 19 24 1014.4 - 7.2 - Partly cloudy 10 - - - -
19/04:00am 13.5 SW 18 23 1014.1 - 7.2 - Partly cloudy 10 - - - -
19/03:30am 13.4 SW 20 24 1014.0 - 7.2 - Partly cloudy 10 - - - -
19/03:00am 13.5 SW 20 26 1014.0 - 7.2 - Mostly cloudy 10 - - - -
19/02:30am 13.6 SW 20 26 1014.2 - 7.2 - Partly cloudy 10 - - - -
19/02:00am 13.4 SW 21 26 1014.2 - 7.2 - Partly cloudy 10 - - - -
19/01:30am 13.3 SW 21 28 1014.2 - 7.2 - Partly cloudy 10 - - - -
19/01:00am 13.4 WSW 23 28 1014.3 - 7.2 - Partly cloudy 10 - - - -
19/12:30am 13.8 SW 22 29 1014.2 - 7.2 - Partly cloudy 10 - - - -
19/12:00am 13.7 WSW 23 30 1014.1 - 7.2 - Mostly clear 10 - - - -
 
Date/Time
EST
Temp

°C
Wind Pressure Rain
since 9am
mm
Weather Cloud Vis
km
Sea
Height
m
Swell
Dir
 
Speed
knots
Gust
knots
hPa Trend Height
m
Period
s
Dir
18/11:30pm 13.6 WSW 26 31 1014.1 - 7.2 - - 10 - - - -
18/11:00pm 13.6 WSW 25 30 1014.2 - 7.2 - Partly cloudy 10 - - - -
18/10:30pm 13.7 WSW 27 33 1014.0 - 7.2 - - 10 - - - -

Other Formats:

Comma delimited format used in spreadsheet applications
http://www.bom.gov.au/fwo/IDT60701/IDT60701.94980.axf

JavaScript Object Notation format (JSON) in row-major order
http://www.bom.gov.au/fwo/IDT60701/IDT60701.94980.json